Time;durP1;ratioP1;P1;durP2;ratioP2;P2;SDS_P1;SDS_P2;PMS_P1;PMS_P2;Temp;Humidity;BMP_temperature;BMP_pressure;BME280_temperature;BME280_humidity;BME280_pressure;Samples;Min_cycle;Max_cycle;Signal;HPM_P1;HPM_P2
2022/08/04 00:02:29;;;;;;;5.30;2.72;;;20.90;99.90;;;;;;5003028;28;20042;-72
2022/08/04 00:05:09;;;;;;;6.80;2.92;;;21.00;99.90;;;;;;5001111;28;20146;-67
2022/08/04 00:08:05;;;;;;;3.95;2.25;;;21.00;99.90;;;;;;4999019;28;20061;-67
2022/08/04 00:10:35;;;;;;;4.28;2.17;;;21.00;99.90;;;;;;5004141;28;20046;-67
2022/08/04 00:13:04;;;;;;;2.53;2.33;;;21.00;99.90;;;;;;5006336;28;20065;-69
2022/08/04 00:15:32;;;;;;;7.13;2.53;;;21.00;99.90;;;;;;4998378;28;20550;-71
2022/08/04 00:18:04;;;;;;;2.83;2.22;;;21.00;99.90;;;;;;5002652;28;20074;-68
2022/08/04 00:20:33;;;;;;;6.13;2.42;;;21.00;99.90;;;;;;4995607;28;20047;-72
2022/08/04 00:23:01;;;;;;;5.68;2.60;;;21.00;99.90;;;;;;4991577;28;20065;-67
2022/08/04 00:25:29;;;;;;;4.93;2.22;;;21.00;99.90;;;;;;4989503;28;20054;-67
2022/08/04 00:27:56;;;;;;;3.15;2.53;;;21.00;99.90;;;;;;5001887;28;20076;-68
2022/08/04 00:30:24;;;;;;;3.20;2.60;;;20.90;99.90;;;;;;5001972;28;20137;-67
2022/08/04 00:32:52;;;;;;;3.45;2.55;;;20.90;99.90;;;;;;4998366;28;20109;-67
2022/08/04 00:35:19;;;;;;;3.00;2.63;;;20.90;99.90;;;;;;4988165;28;20953;-71
2022/08/04 00:37:46;;;;;;;4.70;2.03;;;20.90;99.90;;;;;;4993226;28;20053;-67
2022/08/04 00:40:32;;;;;;;6.40;3.75;;;20.80;99.90;;;;;;5000569;28;20088;-68
2022/08/04 00:43:27;;;;;;;3.47;2.45;;;20.80;99.90;;;;;;5004562;28;20049;-67
2022/08/04 00:46:24;;;;;;;6.10;3.25;;;20.70;99.90;;;;;;5001648;28;20072;-67
2022/08/04 00:49:18;;;;;;;2.97;2.50;;;20.70;99.90;;;;;;5003910;28;20049;-67
2022/08/04 00:52:11;;;;;;;8.57;3.60;;;20.70;99.90;;;;;;4972495;28;20493;-68
2022/08/04 00:55:01;;;;;;;2.88;2.53;;;20.60;99.90;;;;;;4974879;28;20042;-72
2022/08/04 00:57:46;;;;;;;4.05;2.90;;;20.60;99.90;;;;;;4996587;28;20061;-70
2022/08/04 01:00:14;;;;;;;4.75;3.30;;;20.50;99.90;;;;;;4985448;28;20400;-70
2022/08/04 01:02:49;;;;;;;5.38;4.18;;;20.50;99.90;;;;;;4977465;28;20038;-73
2022/08/04 01:05:45;;;;;;;4.00;2.72;;;20.40;99.90;;;;;;4980659;28;20369;-69
2022/08/04 01:08:30;;;;;;;4.47;3.25;;;20.40;99.90;;;;;;4983112;28;20105;-69
2022/08/04 01:11:30;;;;;;;8.85;4.97;;;20.40;99.90;;;;;;4973279;28;20634;-68
2022/08/04 01:14:09;;;;;;;6.20;3.60;;;20.30;99.90;;;;;;5004485;28;20069;-68
2022/08/04 01:16:46;;;;;;;5.38;3.10;;;20.30;99.90;;;;;;4991134;28;20053;-67
2022/08/04 01:19:35;;;;;;;6.25;2.97;;;20.20;99.90;;;;;;4993194;28;20050;-67
2022/08/04 01:22:11;;;;;;;4.38;3.50;;;20.20;99.90;;;;;;4979701;28;20039;-69
2022/08/04 01:24:56;;;;;;;3.85;3.42;;;20.20;99.90;;;;;;4985262;28;20456;-68
2022/08/04 01:27:54;;;;;;;6.70;4.05;;;20.10;99.90;;;;;;4978396;28;20070;-69
2022/08/04 01:30:26;;;;;;;7.65;4.15;;;20.10;99.90;;;;;;4983992;28;20529;-69
2022/08/04 01:33:02;;;;;;;6.85;3.80;;;20.10;99.90;;;;;;4981698;28;20497;-67
2022/08/04 01:36:03;;;;;;;5.35;4.10;;;20.10;99.90;;;;;;4967191;28;20316;-69
2022/08/04 01:38:34;;;;;;;7.35;3.75;;;20.00;99.90;;;;;;4972496;28;20054;-68
2022/08/04 01:41:13;;;;;;;6.82;3.50;;;20.00;99.90;;;;;;4980521;28;20371;-69
2022/08/04 01:43:42;;;;;;;8.55;4.18;;;19.90;99.90;;;;;;4981435;28;20042;-74
2022/08/04 01:46:15;;;;;;;3.85;3.47;;;19.90;99.90;;;;;;4979544;28;20149;-72
2022/08/04 01:48:45;;;;;;;5.88;3.75;;;19.80;99.90;;;;;;4982163;28;20137;-73
2022/08/04 01:51:12;;;;;;;7.60;3.92;;;19.80;99.90;;;;;;4984126;28;20113;-67
2022/08/04 01:53:41;;;;;;;6.28;3.42;;;19.80;99.90;;;;;;4977266;28;20070;-70
2022/08/04 01:56:11;;;;;;;5.15;3.72;;;19.80;99.90;;;;;;4977210;28;20062;-72
2022/08/04 01:58:40;;;;;;;5.73;3.73;;;19.80;99.90;;;;;;4974388;28;20061;-69
2022/08/04 02:01:10;;;;;;;6.47;4.18;;;19.70;99.90;;;;;;4984940;28;20395;-69
2022/08/04 02:03:40;;;;;;;7.03;4.60;;;19.70;99.90;;;;;;4991904;28;20057;-75
2022/08/04 02:06:47;;;;;;;5.32;4.65;;;19.60;99.90;;;;;;4980144;28;20065;-68
2022/08/04 02:09:45;;;;;;;5.47;4.15;;;19.60;99.90;;;;;;4978321;28;20082;-70
2022/08/04 02:12:41;;;;;;;6.38;3.88;;;19.60;99.90;;;;;;4968829;28;20129;-69
2022/08/04 02:15:26;;;;;;;6.93;4.15;;;19.50;99.90;;;;;;4972720;28;20169;-71
2022/08/04 02:18:01;;;;;;;4.15;3.67;;;19.50;99.90;;;;;;4980593;28;20050;-67
2022/08/04 02:20:34;;;;;;;5.00;3.75;;;19.50;99.90;;;;;;4981843;28;20141;-69
2022/08/04 02:23:05;;;;;;;4.68;3.92;;;19.50;99.90;;;;;;4979786;28;20425;-67
2022/08/04 02:25:38;;;;;;;7.30;5.50;;;19.50;99.90;;;;;;4981718;28;20077;-67
2022/08/04 02:28:15;;;;;;;5.40;4.63;;;19.50;99.90;;;;;;4980460;28;20067;-70
2022/08/04 02:31:02;;;;;;;7.35;4.13;;;19.50;99.90;;;;;;4980021;28;20058;-69
2022/08/04 02:33:36;;;;;;;5.10;3.75;;;19.40;99.90;;;;;;4970333;28;20164;-70
2022/08/04 02:36:05;;;;;;;9.07;4.18;;;19.40;99.90;;;;;;4976962;28;20459;-67
2022/08/04 02:38:51;;;;;;;5.10;3.75;;;19.40;99.90;;;;;;4973833;28;20073;-69
2022/08/04 02:41:20;;;;;;;5.68;3.90;;;19.30;99.90;;;;;;4975538;28;20109;-67
2022/08/04 02:43:48;;;;;;;6.23;4.50;;;19.40;99.90;;;;;;4979335;28;20105;-67
2022/08/04 02:46:20;;;;;;;5.40;3.72;;;19.30;99.90;;;;;;4972155;28;20876;-67
2022/08/04 02:48:49;;;;;;;9.05;4.20;;;19.30;99.90;;;;;;4977256;28;20455;-70
2022/08/04 02:51:20;;;;;;;4.90;4.13;;;19.30;99.90;;;;;;4975755;28;20471;-67
2022/08/04 02:53:51;;;;;;;7.90;4.82;;;19.20;99.90;;;;;;4971109;28;20105;-68
2022/08/04 02:56:20;;;;;;;6.68;4.50;;;19.20;99.90;;;;;;4971044;28;20586;-69
2022/08/04 02:59:08;;;;;;;10.25;5.30;;;19.20;99.90;;;;;;4973968;28;20153;-67
2022/08/04 03:01:36;;;;;;;7.18;4.88;;;19.20;99.90;;;;;;4979334;28;20100;-69
2022/08/04 03:04:31;;;;;;;8.02;4.72;;;19.20;99.90;;;;;;4997925;28;20484;-67
2022/08/04 03:07:43;;;;;;;7.20;4.72;;;19.20;99.90;;;;;;5003840;28;20054;-70
2022/08/04 03:10:29;;;;;;;6.93;5.22;;;19.30;99.90;;;;;;4977663;28;20058;-72
2022/08/04 03:13:04;;;;;;;6.53;6.03;;;19.20;99.90;;;;;;4971014;28;20042;-69
2022/08/04 03:15:34;;;;;;;5.80;4.00;;;19.20;99.90;;;;;;4975963;28;20097;-70
2022/08/04 03:18:13;;;;;;;4.65;4.25;;;19.20;99.90;;;;;;4973787;28;20193;-69
2022/08/04 03:21:01;;;;;;;8.10;4.68;;;19.20;99.90;;;;;;4981265;28;20119;-68
2022/08/04 03:23:40;;;;;;;6.95;5.25;;;19.20;99.90;;;;;;4975490;28;20571;-70
2022/08/04 03:26:22;;;;;;;8.20;4.40;;;19.30;99.90;;;;;;4969555;28;20476;-70
2022/08/04 03:29:07;;;;;;;7.43;5.35;;;19.30;99.90;;;;;;4971721;28;20082;-73
2022/08/04 03:32:01;;;;;;;7.28;4.25;;;19.30;99.90;;;;;;4980693;28;20089;-67
2022/08/04 03:34:43;;;;;;;6.43;5.85;;;19.30;99.90;;;;;;4974824;28;20342;-67
2022/08/04 03:37:33;;;;;;;6.75;5.05;;;19.30;99.90;;;;;;4971751;28;20039;-72
2022/08/04 03:40:22;;;;;;;7.20;4.45;;;19.30;99.90;;;;;;4979785;28;20070;-68
2022/08/04 03:43:20;;;;;;;6.50;4.13;;;19.30;99.90;;;;;;4966407;28;20098;-73
2022/08/04 03:46:14;;;;;;;5.72;3.25;;;19.30;99.90;;;;;;4994602;28;20133;-70
2022/08/04 03:48:52;;;;;;;4.63;4.22;;;19.30;99.90;;;;;;4992942;28;20049;-72
2022/08/04 03:54:40;;;;;;;6.00;4.43;;;19.30;99.90;;;;;;4995564;28;20283;-70
2022/08/04 03:57:54;;;;;;;5.00;4.45;;;19.30;99.90;;;;;;4993951;28;20141;-68
2022/08/04 04:00:33;;;;;;;6.72;5.30;;;19.20;99.90;;;;;;4981366;28;20121;-73
2022/08/04 04:03:37;;;;;;;6.15;5.32;;;19.20;99.90;;;;;;4999200;28;20155;-68
2022/08/04 04:06:25;;;;;;;5.13;3.85;;;19.20;99.90;;;;;;4996229;28;20101;-66
2022/08/04 04:09:17;;;;;;;9.75;5.53;;;19.20;99.90;;;;;;4999760;28;20707;-67
2022/08/04 04:12:08;;;;;;;8.88;5.00;;;19.20;99.90;;;;;;4997397;28;20050;-71
2022/08/04 04:15:16;;;;;;;6.18;4.63;;;19.20;99.90;;;;;;4995059;28;20078;-69
2022/08/04 04:18:14;;;;;;;7.50;5.10;;;19.30;99.90;;;;;;4991782;28;20122;-68
2022/08/04 04:21:02;;;;;;;6.13;4.85;;;19.30;99.90;;;;;;4974103;28;20054;-66
2022/08/04 04:23:56;;;;;;;8.02;5.10;;;19.30;99.90;;;;;;4980657;28;20157;-71
2022/08/04 04:26:58;;;;;;;6.40;4.43;;;19.30;99.90;;;;;;4982977;28;20134;-70
2022/08/04 04:29:50;;;;;;;4.25;3.65;;;19.40;99.90;;;;;;4972427;28;20042;-67
2022/08/04 04:32:55;;;;;;;9.57;4.25;;;19.50;99.90;;;;;;4975261;28;20526;-67
2022/08/04 04:35:49;;;;;;;9.65;4.80;;;19.50;99.90;;;;;;4976627;28;20176;-70
2022/08/04 04:38:25;;;;;;;7.82;3.88;;;19.50;99.90;;;;;;4977371;28;20046;-67
2022/08/04 04:41:04;;;;;;;6.70;4.72;;;19.50;99.90;;;;;;4980419;28;20085;-69
2022/08/04 04:43:44;;;;;;;7.05;4.32;;;19.60;99.90;;;;;;4974799;28;20419;-68
2022/08/04 04:46:29;;;;;;;6.38;4.63;;;19.60;99.90;;;;;;4982727;28;20068;-72
2022/08/04 04:48:59;;;;;;;7.70;4.70;;;19.70;99.90;;;;;;4980974;28;20116;-69
2022/08/04 04:51:41;;;;;;;5.00;4.40;;;19.70;99.90;;;;;;4978294;28;20104;-67
2022/08/04 04:54:20;;;;;;;6.85;4.38;;;19.70;99.90;;;;;;4990331;28;20477;-70
2022/08/04 04:57:02;;;;;;;9.07;4.75;;;19.80;99.90;;;;;;4979416;28;20142;-68
2022/08/04 04:59:33;;;;;;;7.50;4.68;;;19.80;99.90;;;;;;4978246;28;20393;-68
2022/08/04 05:02:31;;;;;;;6.70;5.25;;;19.90;99.90;;;;;;4983585;28;20523;-69
2022/08/04 05:05:42;;;;;;;4.88;4.25;;;19.90;99.90;;;;;;4982489;28;20508;-67
2022/08/04 05:08:32;;;;;;;11.95;4.72;;;20.00;99.90;;;;;;4984895;28;20250;-67
2022/08/04 05:11:38;;;;;;;6.85;3.83;;;20.00;99.90;;;;;;4980071;28;20038;-72
2022/08/04 05:14:12;;;;;;;5.32;4.28;;;20.10;99.90;;;;;;4981605;28;20148;-69
2022/08/04 05:17:05;;;;;;;6.40;4.07;;;20.20;99.90;;;;;;4979122;28;20046;-67
2022/08/04 05:19:49;;;;;;;6.00;4.88;;;20.20;99.90;;;;;;4975304;28;20531;-68
2022/08/04 05:22:23;;;;;;;6.03;5.53;;;20.20;99.90;;;;;;4980229;28;20161;-67
2022/08/04 05:25:00;;;;;;;4.32;3.60;;;20.30;99.90;;;;;;4977286;28;20133;-67
2022/08/04 05:28:05;;;;;;;5.60;4.50;;;20.40;99.90;;;;;;4982908;28;20175;-67
2022/08/04 05:30:47;;;;;;;6.85;4.63;;;20.50;99.90;;;;;;4992847;28;20046;-70
2022/08/04 05:33:19;;;;;;;6.60;4.13;;;20.50;99.90;;;;;;4996848;28;20049;-69
2022/08/04 05:35:50;;;;;;;5.70;3.83;;;20.60;99.90;;;;;;4976145;28;20200;-68
2022/08/04 05:38:39;;;;;;;7.15;4.18;;;20.60;99.90;;;;;;4980470;28;20077;-69
2022/08/04 05:41:09;;;;;;;5.20;4.47;;;20.70;99.90;;;;;;4983089;28;20078;-67
2022/08/04 05:43:39;;;;;;;6.63;3.03;;;20.80;99.90;;;;;;4979645;28;20554;-69
2022/08/04 05:46:07;;;;;;;;;;;20.90;99.90;;;;;;4974463;28;20877;-69
2022/08/04 05:48:35;;;;;;;4.43;4.07;;;20.90;99.90;;;;;;4970703;28;20377;-73
2022/08/04 05:51:04;;;;;;;4.43;4.00;;;21.00;99.90;;;;;;4971170;28;20097;-70
2022/08/04 05:53:33;;;;;;;4.38;3.72;;;21.10;99.90;;;;;;4967225;28;20046;-70
2022/08/04 05:56:02;;;;;;;4.57;3.60;;;21.20;99.90;;;;;;4972693;28;20074;-68
2022/08/04 05:58:30;;;;;;;7.80;4.07;;;21.20;99.90;;;;;;4970436;28;20050;-70
2022/08/04 06:01:00;;;;;;;7.40;4.28;;;21.30;99.90;;;;;;4972364;28;20077;-67
2022/08/04 06:03:34;;;;;;;6.45;4.00;;;21.50;99.90;;;;;;4975458;28;20050;-67
2022/08/04 06:06:02;;;;;;;7.68;4.97;;;21.50;99.90;;;;;;4972210;28;20047;-67
2022/08/04 06:08:30;;;;;;;6.10;5.65;;;21.60;99.90;;;;;;4984119;28;20050;-67
2022/08/04 06:11:01;;;;;;;6.15;5.63;;;21.60;99.90;;;;;;4981881;28;20055;-70
2022/08/04 06:13:29;;;;;;;10.88;4.57;;;21.50;99.90;;;;;;4966821;28;20149;-67
2022/08/04 06:16:21;;;;;;;7.70;5.05;;;21.40;99.90;;;;;;4972693;28;20448;-68
2022/08/04 06:19:00;;;;;;;4.43;4.03;;;21.30;99.90;;;;;;4971290;28;20096;-70
2022/08/04 06:21:49;;;;;;;6.97;4.18;;;21.30;99.90;;;;;;4997409;28;20041;-68
2022/08/04 06:24:20;;;;;;;5.22;3.42;;;21.20;99.90;;;;;;5001307;28;20767;-69
2022/08/04 06:26:50;;;;;;;5.30;4.20;;;21.20;99.90;;;;;;4998984;28;20523;-67
2022/08/04 06:29:25;;;;;;;4.17;3.77;;;21.20;99.90;;;;;;4998628;28;20045;-71
2022/08/04 06:31:57;;;;;;;7.75;4.65;;;21.20;99.90;;;;;;4996161;28;20073;-68
2022/08/04 06:34:45;;;;;;;7.30;5.25;;;21.30;99.90;;;;;;4994310;28;20034;-69
2022/08/04 06:37:13;;;;;;;4.15;3.80;;;21.30;99.90;;;;;;4996108;28;20097;-69
2022/08/04 06:40:02;;;;;;;13.18;4.65;;;21.30;99.90;;;;;;5000550;28;20151;-68
2022/08/04 06:42:51;;;;;;;7.57;4.50;;;21.40;99.90;;;;;;4994163;28;20046;-71
2022/08/04 06:45:19;;;;;;;6.25;5.13;;;21.50;99.90;;;;;;4993340;28;20045;-71
2022/08/04 06:47:47;;;;;;;6.35;4.97;;;21.50;99.90;;;;;;4999257;28;20029;-69
2022/08/04 06:50:15;;;;;;;7.93;5.43;;;21.50;99.90;;;;;;5001325;28;20041;-67
2022/08/04 06:53:03;;;;;;;24.65;5.40;;;21.60;99.90;;;;;;4994506;28;20132;-69
2022/08/04 06:55:32;;;;;;;4.97;4.45;;;21.60;99.90;;;;;;4996836;28;20056;-70
2022/08/04 06:58:00;;;;;;;4.20;3.72;;;21.60;99.90;;;;;;4999211;28;20140;-73
2022/08/04 07:00:30;;;;;;;9.85;5.00;;;21.60;99.90;;;;;;5003354;28;20080;-73
2022/08/04 07:02:59;;;;;;;8.15;4.50;;;21.70;99.90;;;;;;4994751;28;21734;-69
2022/08/04 07:05:27;;;;;;;4.57;4.28;;;21.70;99.90;;;;;;4997756;28;20100;-67
2022/08/04 07:07:55;;;;;;;6.20;4.93;;;21.80;99.90;;;;;;4999700;28;20034;-68
2022/08/04 07:10:27;;;;;;;4.72;3.78;;;21.80;99.90;;;;;;5003172;28;20053;-68
2022/08/04 07:12:56;;;;;;;7.03;4.80;;;21.80;99.90;;;;;;4997776;28;20185;-68
2022/08/04 07:15:24;;;;;;;4.60;4.20;;;21.90;99.90;;;;;;4997654;28;20149;-68
2022/08/04 07:17:53;;;;;;;5.10;4.68;;;21.90;99.90;;;;;;4998255;28;20046;-68
2022/08/04 07:20:20;;;;;;;5.10;4.70;;;21.90;99.90;;;;;;4995877;28;20442;-67
2022/08/04 07:23:01;;;;;;;5.07;4.50;;;21.90;99.90;;;;;;4996761;28;20049;-73
2022/08/04 07:25:29;;;;;;;4.72;3.70;;;22.00;99.90;;;;;;4995364;28;20132;-67
2022/08/04 07:28:15;;;;;;;4.63;4.22;;;22.10;99.90;;;;;;4995456;28;20520;-68
2022/08/04 07:30:44;;;;;;;5.68;4.68;;;22.20;99.90;;;;;;4996646;28;20384;-70
2022/08/04 07:33:13;;;;;;;5.20;4.78;;;22.20;99.90;;;;;;4994814;28;20077;-68
2022/08/04 07:35:41;;;;;;;7.85;3.92;;;22.20;99.90;;;;;;5002290;28;20469;-73
2022/08/04 07:38:27;;;;;;;4.15;3.50;;;22.30;99.90;;;;;;4997524;28;20058;-67
2022/08/04 07:40:55;;;;;;;5.63;4.47;;;22.30;99.90;;;;;;5000959;28;20137;-67
2022/08/04 07:43:22;;;;;;;4.63;4.18;;;22.40;99.90;;;;;;4995754;28;20050;-70
2022/08/04 07:45:49;;;;;;;6.20;4.45;;;22.40;99.90;;;;;;4998278;28;20129;-68
2022/08/04 07:48:17;;;;;;;5.07;3.90;;;22.50;99.90;;;;;;4996773;28;20073;-69
2022/08/04 07:50:46;;;;;;;5.78;3.85;;;22.60;99.90;;;;;;4998900;28;20514;-69
2022/08/04 07:53:13;;;;;;;4.35;3.25;;;22.70;99.90;;;;;;4996430;28;20125;-70
2022/08/04 07:56:01;;;;;;;4.63;3.60;;;22.70;99.90;;;;;;4997856;28;20046;-71
2022/08/04 07:58:28;;;;;;;5.40;3.50;;;22.70;99.90;;;;;;4995942;28;20554;-67
2022/08/04 08:00:56;;;;;;;3.95;3.55;;;22.70;99.90;;;;;;4995545;28;20062;-69
2022/08/04 08:03:25;;;;;;;6.47;3.13;;;22.80;99.90;;;;;;4996780;28;20042;-67
2022/08/04 08:05:52;;;;;;;5.70;4.40;;;22.90;99.90;;;;;;4998639;28;20041;-70
2022/08/04 08:08:39;;;;;;;10.82;7.18;;;22.90;99.90;;;;;;4999127;28;20161;-70
2022/08/04 08:11:08;;;;;;;5.15;4.65;;;22.90;99.90;;;;;;4999649;28;20130;-67
2022/08/04 08:13:36;;;;;;;13.00;7.82;;;22.80;99.90;;;;;;4992281;28;20786;-68
2022/08/04 08:16:03;;;;;;;9.85;5.60;;;22.90;99.90;;;;;;5001050;28;20515;-70
2022/08/04 08:18:30;;;;;;;6.53;5.32;;;22.90;99.90;;;;;;4999153;28;20128;-69
2022/08/04 08:20:57;;;;;;;5.38;4.93;;;22.90;99.90;;;;;;5003986;28;20070;-69
2022/08/04 08:23:25;;;;;;;6.70;6.15;;;22.90;99.90;;;;;;5002849;28;20049;-72
2022/08/04 08:25:52;;;;;;;7.40;5.05;;;22.90;99.90;;;;;;4998856;28;20129;-68
2022/08/04 08:28:19;;;;;;;7.70;5.25;;;23.00;99.90;;;;;;5002318;28;20478;-68
2022/08/04 08:30:46;;;;;;;8.48;5.57;;;23.00;99.90;;;;;;5003986;28;20042;-68
2022/08/04 08:33:20;;;;;;;13.43;5.75;;;23.10;99.90;;;;;;5000088;28;20145;-69
2022/08/04 08:36:13;;;;;;;5.53;4.50;;;23.10;99.90;;;;;;5001264;28;20070;-70
2022/08/04 08:39:08;;;;;;;8.30;5.57;;;23.10;99.90;;;;;;4998790;28;20456;-69
2022/08/04 08:41:54;;;;;;;5.88;4.28;;;23.10;99.90;;;;;;5001342;28;20057;-73
2022/08/04 08:44:42;;;;;;;5.18;3.63;;;23.20;99.90;;;;;;5000561;28;20078;-68
2022/08/04 08:47:18;;;;;;;8.10;6.95;;;23.30;99.90;;;;;;4998963;28;20042;-73
2022/08/04 08:49:52;;;;;;;7.25;3.80;;;23.30;99.90;;;;;;4998020;28;20104;-71
2022/08/04 08:53:04;;;;;;;5.03;3.78;;;23.50;99.90;;;;;;4996436;28;20054;-67
2022/08/04 08:55:59;;;;;;;7.90;4.32;;;23.60;99.90;;;;;;4992217;28;20042;-68
2022/08/04 08:58:31;;;;;;;7.18;5.47;;;23.60;99.90;;;;;;4998790;28;20790;-69
2022/08/04 09:01:26;;;;;;;6.32;4.68;;;23.40;99.90;;;;;;5002305;28;20046;-74
2022/08/04 09:04:13;;;;;;;7.45;4.63;;;23.40;99.90;;;;;;4998761;28;20125;-70
2022/08/04 09:07:19;;;;;;;5.43;4.30;;;23.50;99.90;;;;;;5003171;28;20069;-67
2022/08/04 09:10:03;;;;;;;5.70;4.55;;;23.40;99.90;;;;;;4987755;28;20037;-70
2022/08/04 09:12:54;;;;;;;9.45;3.50;;;23.60;99.90;;;;;;4999509;28;20122;-71
2022/08/04 09:15:24;;;;;;;8.55;4.47;;;23.70;99.90;;;;;;4999811;28;20062;-68
2022/08/04 09:17:57;;;;;;;9.43;6.43;;;23.50;99.90;;;;;;5001246;28;20069;-70
2022/08/04 09:20:39;;;;;;;7.85;5.40;;;23.40;99.90;;;;;;4999287;28;20042;-67
2022/08/04 09:23:18;;;;;;;5.05;4.53;;;23.60;99.90;;;;;;4995225;28;20465;-73
2022/08/04 09:26:06;;;;;;;6.05;5.45;;;23.70;99.90;;;;;;4995238;28;20038;-68
2022/08/04 09:28:58;;;;;;;11.48;6.43;;;23.70;99.90;;;;;;4997525;28;20049;-67
2022/08/04 09:31:38;;;;;;;7.15;5.05;;;23.70;99.90;;;;;;4980630;28;20050;-71
2022/08/04 09:34:55;;;;;;;7.80;5.22;;;23.60;99.90;;;;;;4999491;28;20053;-68
2022/08/04 09:38:19;;;;;;;5.10;4.70;;;23.80;99.90;;;;;;5000392;28;20054;-68
2022/08/04 09:40:55;;;;;;;7.10;5.90;;;24.10;99.90;;;;;;4979375;28;20480;-68
2022/08/04 09:43:47;;;;;;;10.00;4.90;;;24.10;99.90;;;;;;4998853;28;20053;-68
2022/08/04 09:46:44;;;;;;;4.75;3.22;;;23.90;99.90;;;;;;4998643;28;20045;-68
2022/08/04 09:49:40;;;;;;;6.68;3.00;;;24.00;99.90;;;;;;4997797;28;20520;-68
2022/08/04 09:52:39;;;;;;;8.02;3.85;;;24.00;99.90;;;;;;4997518;28;20058;-71
2022/08/04 09:55:29;;;;;;;6.10;3.63;;;24.10;99.90;;;;;;5001391;28;20119;-67
2022/08/04 09:58:23;;;;;;;3.90;2.47;;;24.20;99.90;;;;;;4989770;28;20132;-68
2022/08/04 10:01:00;;;;;;;4.28;3.40;;;24.30;99.90;;;;;;4999891;28;20041;-70
2022/08/04 10:03:36;;;;;;;6.50;3.38;;;24.30;99.90;;;;;;4995189;28;20226;-68
2022/08/04 10:06:37;;;;;;;7.22;3.35;;;24.30;99.90;;;;;;4998774;28;20048;-70
2022/08/04 10:09:16;;;;;;;5.43;3.50;;;24.20;99.90;;;;;;4998944;28;20078;-70
2022/08/04 10:12:08;;;;;;;4.53;3.35;;;24.30;99.90;;;;;;4982569;28;20054;-68
2022/08/04 10:14:51;;;;;;;5.53;3.05;;;24.40;99.90;;;;;;4981995;28;20605;-71
2022/08/04 10:17:31;;;;;;;6.28;3.35;;;24.70;99.90;;;;;;4971442;28;20053;-69
2022/08/04 10:20:01;;;;;;;5.22;3.53;;;24.80;99.90;;;;;;4971110;28;20441;-70
2022/08/04 10:22:38;;;;;;;5.32;3.28;;;24.90;99.90;;;;;;4974411;28;20678;-69
2022/08/04 10:26:01;;;;;;;5.28;2.60;;;25.00;99.90;;;;;;4977447;28;20049;-68
2022/08/04 10:28:48;;;;;;;8.45;2.40;;;25.20;99.90;;;;;;4988544;28;20458;-67
2022/08/04 10:31:23;;;;;;;5.45;2.40;;;25.10;99.90;;;;;;4969028;28;20057;-67
2022/08/04 10:34:10;;;;;;;4.22;3.25;;;25.20;99.90;;;;;;4967478;28;20046;-68
2022/08/04 10:37:08;;;;;;;5.63;3.08;;;25.20;99.90;;;;;;4982929;28;20450;-73
2022/08/04 10:40:35;;;;;;;5.45;2.95;;;25.30;99.90;;;;;;4997114;28;20042;-67
2022/08/04 10:42:37;;;;;;;4.60;3.22;;;25.20;99.90;;;;;;5006465;28;20053;-68
2022/08/04 10:45:12;;;;;;;;;;;25.40;99.90;;;;;;4999693;28;20038;-75
2022/08/04 10:47:57;;;;;;;7.82;3.20;;;25.30;99.90;;;;;;4994832;28;19949;-67
2022/08/04 10:50:28;;;;;;;5.85;3.55;;;25.20;99.90;;;;;;5000167;28;20060;-68
2022/08/04 10:53:19;;;;;;;4.38;3.22;;;25.40;99.90;;;;;;4994596;28;20050;-67
2022/08/04 10:55:52;;;;;;;5.70;3.15;;;25.40;99.90;;;;;;4993208;28;20433;-67
2022/08/04 10:58:41;;;;;;;4.55;2.88;;;25.30;99.90;;;;;;5004226;28;20050;-72
2022/08/04 11:01:24;;;;;;;7.45;3.13;;;25.30;99.90;;;;;;4995167;28;20042;-69
2022/08/04 11:04:19;;;;;;;4.75;3.47;;;25.50;99.90;;;;;;5001974;28;20128;-67
2022/08/04 11:06:54;;;;;;;2.88;2.67;;;25.70;99.90;;;;;;5004593;28;20050;-71
2022/08/04 11:09:21;;;;;;;7.60;2.83;;;26.00;99.90;;;;;;5003677;28;20064;-69
2022/08/04 11:11:54;;;;;;;3.63;3.17;;;26.10;99.90;;;;;;5004875;28;20488;-71
2022/08/04 11:14:38;;;;;;;3.15;2.58;;;26.00;99.90;;;;;;5004622;28;20659;-71
2022/08/04 11:17:28;;;;;;;4.90;2.25;;;26.20;99.90;;;;;;5002853;28;20104;-68
2022/08/04 11:20:01;;;;;;;;;;;26.30;99.90;;;;;;4984181;28;20042;-68
2022/08/04 11:22:59;;;;;;;6.63;3.22;;;26.30;99.90;;;;;;4994596;28;20036;-68
2022/08/04 11:25:32;;;;;;;3.72;2.90;;;26.40;99.90;;;;;;4997161;28;20157;-68
2022/08/04 11:28:09;;;;;;;4.68;2.60;;;26.60;99.90;;;;;;5001725;28;20046;-68
2022/08/04 11:31:09;;;;;;;3.65;2.28;;;26.30;99.90;;;;;;4985592;28;20357;-68
2022/08/04 11:33:46;;;;;;;3.78;3.22;;;26.30;99.90;;;;;;4983612;28;20123;-69
2022/08/04 11:36:19;;;;;;;6.35;3.40;;;26.20;99.90;;;;;;4977611;28;20088;-70
2022/08/04 11:38:55;;;;;;;5.57;2.97;;;26.40;99.90;;;;;;4998505;28;20107;-69
2022/08/04 11:41:39;;;;;;;6.47;2.75;;;26.40;99.90;;;;;;5007489;28;20132;-68
2022/08/04 11:44:12;;;;;;;8.20;3.80;;;26.60;99.90;;;;;;4998223;28;20038;-68
2022/08/04 11:46:46;;;;;;;18.92;7.00;;;26.60;99.90;;;;;;4987228;28;20055;-70
2022/08/04 11:49:40;;;;;;;4.43;3.63;;;26.60;99.90;;;;;;5001902;28;20074;-73
2022/08/04 11:52:24;;;;;;;;;;;26.50;99.90;;;;;;5007024;28;20053;-70
2022/08/04 11:54:52;;;;;;;3.05;2.30;;;26.20;99.90;;;;;;5008129;28;20407;-69
2022/08/04 11:57:22;;;;;;;29.92;7.07;;;26.30;99.90;;;;;;5003690;28;20050;-69
2022/08/04 12:00:07;;;;;;;6.07;3.33;;;26.30;99.90;;;;;;4996776;28;20140;-68
2022/08/04 12:03:11;;;;;;;6.78;3.92;;;26.50;99.90;;;;;;5006057;28;20434;-70
2022/08/04 12:06:02;;;;;;;4.18;2.72;;;26.60;99.90;;;;;;4982082;28;20047;-68
2022/08/04 12:08:39;;;;;;;;;;;26.60;99.90;;;;;;4986642;28;20503;-67
2022/08/04 12:11:48;;;;;;;5.22;2.78;;;26.70;99.90;;;;;;4973054;28;20182;-67
2022/08/04 12:14:50;;;;;;;5.70;2.58;;;26.70;99.90;;;;;;4973662;28;20647;-68
2022/08/04 12:17:56;;;;;;;5.60;2.30;;;26.70;99.90;;;;;;4983113;28;20042;-68
2022/08/04 12:20:27;;;;;;;5.28;2.90;;;26.60;99.90;;;;;;4969980;28;20484;-69
2022/08/04 12:23:13;;;;;;;6.47;3.42;;;26.60;99.90;;;;;;4979020;28;20054;-71
2022/08/04 12:25:45;;;;;;;4.57;2.85;;;26.60;99.90;;;;;;4997963;28;20056;-70
2022/08/04 12:28:31;;;;;;;5.18;2.88;;;26.70;99.90;;;;;;5000686;28;20548;-68
2022/08/04 12:31:26;;;;;;;6.20;2.97;;;26.80;99.90;;;;;;5005218;28;20050;-70
2022/08/04 12:33:58;;;;;;;4.38;2.67;;;26.70;99.90;;;;;;5004077;28;20737;-68
2022/08/04 12:37:22;;;;;;;5.95;3.60;;;26.80;99.90;;;;;;5005195;28;20058;-71
2022/08/04 12:39:52;;;;;;;4.30;2.63;;;26.70;99.90;;;;;;4964157;28;20050;-71
2022/08/04 12:42:51;;;;;;;6.18;2.88;;;26.50;99.90;;;;;;4986354;28;20093;-69
2022/08/04 12:45:25;;;;;;;4.65;2.60;;;26.40;99.90;;;;;;4984078;28;20048;-68
2022/08/04 12:47:55;;;;;;;8.02;3.45;;;26.50;99.90;;;;;;4980386;28;20435;-68
2022/08/04 12:50:22;;;;;;;;;;;26.70;99.90;;;;;;4988313;28;20133;-68
2022/08/04 12:52:55;;;;;;;3.55;3.25;;;26.80;99.90;;;;;;4977696;28;19965;-71
2022/08/04 12:55:34;;;;;;;3.40;2.40;;;26.90;99.90;;;;;;4978699;28;20525;-68
2022/08/04 12:58:10;;;;;;;3.03;2.42;;;26.80;99.90;;;;;;4980981;28;20074;-72
2022/08/04 13:00:37;;;;;;;9.80;2.53;;;26.80;99.90;;;;;;4982286;28;20053;-72
2022/08/04 13:03:14;;;;;;;5.18;2.85;;;27.00;99.90;;;;;;4978127;28;20065;-69
2022/08/04 13:05:43;;;;;;;3.28;2.55;;;27.00;99.90;;;;;;4982942;28;20053;-68
2022/08/04 13:08:12;;;;;;;6.97;3.25;;;26.90;99.90;;;;;;4975768;28;20184;-70
2022/08/04 13:10:43;;;;;;;5.20;2.88;;;26.80;99.90;;;;;;4978955;28;20057;-71
2022/08/04 13:13:19;;;;;;;6.45;3.88;;;26.80;99.90;;;;;;4977821;28;20093;-70
2022/08/04 13:16:16;;;;;;;5.93;4.00;;;26.80;99.90;;;;;;4974164;28;20043;-68
2022/08/04 13:18:48;;;;;;;7.45;4.93;;;26.70;99.90;;;;;;4980340;28;20070;-68
2022/08/04 13:21:20;;;;;;;5.50;3.47;;;27.00;99.90;;;;;;4975559;28;21274;-69
2022/08/04 13:24:12;;;;;;;4.43;3.00;;;27.00;99.90;;;;;;4976274;28;20045;-70
2022/08/04 13:26:57;;;;;;;5.90;3.72;;;27.10;99.90;;;;;;4984537;28;20108;-68
2022/08/04 13:29:51;;;;;;;6.32;3.00;;;27.00;99.90;;;;;;4982478;28;20038;-68
2022/08/04 13:32:30;;;;;;;3.75;2.85;;;26.90;99.90;;;;;;4978568;28;20490;-70
2022/08/04 13:35:00;;;;;;;6.78;3.78;;;27.00;99.90;;;;;;4974068;28;20140;-68
2022/08/04 13:37:33;;;;;;;10.15;3.60;;;27.00;99.90;;;;;;4972615;28;20045;-72
2022/08/04 13:40:05;;;;;;;4.82;3.40;;;26.90;99.90;;;;;;4976420;28;20047;-68
2022/08/04 13:42:33;;;;;;;5.20;3.22;;;26.90;99.90;;;;;;4979312;28;20492;-68
2022/08/04 13:45:06;;;;;;;7.22;3.33;;;26.90;99.90;;;;;;4977243;28;20101;-73
2022/08/04 13:47:36;;;;;;;3.90;2.60;;;27.10;99.90;;;;;;4972380;28;20067;-69
2022/08/04 13:50:09;;;;;;;6.00;3.10;;;26.90;99.90;;;;;;4977166;28;20081;-72
2022/08/04 13:52:42;;;;;;;5.50;3.28;;;27.10;99.90;;;;;;4975027;28;20055;-72
2022/08/04 13:55:32;;;;;;;3.65;3.35;;;27.00;99.90;;;;;;4973348;28;20055;-71
2022/08/04 13:58:19;;;;;;;8.45;4.10;;;27.10;99.90;;;;;;4971930;28;20141;-69
2022/08/04 14:00:52;;;;;;;5.65;4.65;;;27.10;99.90;;;;;;4981769;28;20400;-68